Time;durP1;ratioP1;P1;durP2;ratioP2;P2;SDS_P1;SDS_P2;PMS_P1;PMS_P2;Temp;Humidity;BMP_temperature;BMP_pressure;BME280_temperature;BME280_humidity;BME280_pressure;Samples;Min_cycle;Max_cycle;Signal;HPM_P1;HPM_P2
2022/02/01 00:00:23;;;;;;;6.80;1.30;;;;;;;;;;5115049;28;20042;-61
2022/02/01 00:02:55;;;;;;;4.65;1.23;;;;;;;;;;5114660;28;20047;-62
2022/02/01 00:08:00;;;;;;;3.35;0.98;;;;;;;;;;5114788;28;20031;-60
2022/02/01 00:36:58;;;;;;;5.88;1.00;;;;;;;;;;5114391;28;20039;-61
2022/02/01 00:39:30;;;;;;;2.67;0.95;;;;;;;;;;5120788;27;20362;-61
2022/02/01 00:41:56;;;;;;;;;;;;;;;;;;5093961;28;20024;-60
2022/02/01 00:44:24;;;;;;;3.47;0.95;;;;;;;;;;5093738;28;20243;-62
2022/02/01 00:46:50;;;;;;;5.55;0.80;;;;;;;;;;5093135;28;20507;-61
2022/02/01 00:49:16;;;;;;;4.20;1.17;;;;;;;;;;5093566;28;20035;-60
2022/02/01 00:51:42;;;;;;;3.33;1.00;;;;;;;;;;5093297;28;20020;-62
2022/02/01 00:54:08;;;;;;;2.40;0.80;;;;;;;;;;5093496;28;20050;-61
2022/02/01 00:56:34;;;;;;;7.35;0.88;;;;;;;;;;5107001;27;20168;-61
2022/02/01 00:59:00;;;;;;;4.65;0.80;;;;;;;;;;5134605;27;20087;-60
2022/02/01 01:01:26;;;;;;;2.65;0.80;;;;;;;;;;5134292;27;20031;-62
2022/02/01 01:03:52;;;;;;;5.88;1.30;;;;;;;;;;5134120;27;20851;-61
2022/02/01 01:06:18;;;;;;;2.70;1.00;;;;;;;;;;5134189;27;20114;-64
2022/02/01 01:08:44;;;;;;;4.55;0.90;;;;;;;;;;5134386;27;20023;-60
2022/02/01 01:11:11;;;;;;;3.17;0.80;;;;;;;;;;5121279;27;20478;-62
2022/02/01 01:16:23;;;;;;;2.30;0.82;;;;;;;;;;5112826;28;20045;-64
2022/02/01 01:43:37;;;;;;;7.80;0.90;;;;;;;;;;5112850;28;20039;-60
2022/02/01 01:54:14;;;;;;;4.82;1.08;;;;;;;;;;5114660;27;20573;-60
2022/02/01 01:56:40;;;;;;;3.85;1.05;;;;;;;;;;5133681;27;20042;-60
2022/02/01 01:59:07;;;;;;;3.15;0.88;;;;;;;;;;5133773;27;20110;-60
2022/02/01 02:01:34;;;;;;;5.05;0.80;;;;;;;;;;5133048;27;20030;-60
2022/02/01 02:04:00;;;;;;;2.40;0.80;;;;;;;;;;5116063;27;20034;-62
2022/02/01 02:06:26;;;;;;;3.72;1.10;;;;;;;;;;5112658;28;20508;-60
2022/02/01 02:08:54;;;;;;;6.97;1.40;;;;;;;;;;5112556;28;20027;-60
2022/02/01 02:14:20;;;;;;;4.82;1.20;;;;;;;;;;5092482;28;20097;-60
2022/02/01 02:16:52;;;;;;;9.23;1.30;;;;;;;;;;5092373;28;20032;-60
2022/02/01 02:19:19;;;;;;;8.88;1.20;;;;;;;;;;5092017;28;20358;-62
2022/02/01 02:21:50;;;;;;;3.42;1.00;;;;;;;;;;5092151;28;20021;-60
2022/02/01 02:24:16;;;;;;;4.15;1.05;;;;;;;;;;5091723;28;20154;-61
2022/02/01 02:26:43;;;;;;;8.68;0.98;;;;;;;;;;5092115;28;20417;-60
2022/02/01 02:29:09;;;;;;;3.78;1.00;;;;;;;;;;5091896;28;20364;-60
2022/02/01 02:31:38;;;;;;;4.50;1.00;;;;;;;;;;5093856;28;20050;-61
2022/02/01 02:34:10;;;;;;;3.03;0.93;;;;;;;;;;5107208;28;20541;-60
2022/02/01 02:36:45;;;;;;;2.35;1.05;;;;;;;;;;5092153;28;20081;-62
2022/02/01 02:47:02;;;;;;;3.85;1.30;;;;;;;;;;5091869;28;20113;-61
2022/02/01 02:49:28;;;;;;;8.50;1.13;;;;;;;;;;5089913;28;20391;-61
2022/02/01 02:51:54;;;;;;;2.90;0.93;;;;;;;;;;5112247;28;20152;-61
2022/02/01 02:54:22;;;;;;;4.15;1.23;;;;;;;;;;5113657;28;20154;-61
2022/02/01 02:56:49;;;;;;;4.28;1.00;;;;;;;;;;5116156;28;20149;-61
2022/02/01 02:59:16;;;;;;;5.68;1.25;;;;;;;;;;5116360;28;20024;-62
2022/02/01 03:01:47;;;;;;;6.65;1.20;;;;;;;;;;5115916;28;20124;-62
2022/02/01 03:04:17;;;;;;;6.72;1.50;;;;;;;;;;5114830;28;20051;-61
2022/02/01 03:06:43;;;;;;;4.53;1.33;;;;;;;;;;5090323;28;20390;-61
2022/02/01 03:09:10;;;;;;;3.72;0.90;;;;;;;;;;5116124;28;20015;-61
2022/02/01 03:11:37;;;;;;;3.70;1.15;;;;;;;;;;5115986;28;20038;-61
2022/02/01 03:14:12;;;;;;;3.13;1.17;;;;;;;;;;5115706;28;20023;-60
2022/02/01 03:16:58;;;;;;;4.40;1.08;;;;;;;;;;5115688;28;20067;-61
2022/02/01 03:22:08;;;;;;;3.65;1.55;;;;;;;;;;5109633;28;20089;-61
2022/02/01 03:24:35;;;;;;;6.18;1.38;;;;;;;;;;5115432;28;20500;-61
2022/02/01 03:27:01;;;;;;;3.42;1.00;;;;;;;;;;5115648;28;20066;-61
2022/02/01 03:29:27;;;;;;;3.90;1.27;;;;;;;;;;5115401;28;20016;-61
2022/02/01 03:31:53;;;;;;;6.95;1.42;;;;;;;;;;5115410;28;20093;-62
2022/02/01 03:34:19;;;;;;;4.85;1.48;;;;;;;;;;5114525;28;20027;-60
2022/02/01 03:36:45;;;;;;;3.92;1.00;;;;;;;;;;5125926;27;20036;-61
2022/02/01 03:39:11;;;;;;;3.40;1.20;;;;;;;;;;5121560;27;20070;-60
2022/02/01 03:41:37;;;;;;;6.18;1.25;;;;;;;;;;5115279;28;20035;-62
2022/02/01 03:44:05;;;;;;;7.38;1.48;;;;;;;;;;5115331;28;20020;-60
2022/02/01 03:46:32;;;;;;;4.80;1.42;;;;;;;;;;5096726;28;20028;-61
2022/02/01 03:48:58;;;;;;;5.55;1.50;;;;;;;;;;5115068;28;20026;-61
2022/02/01 03:51:24;;;;;;;3.72;1.17;;;;;;;;;;5096893;28;20064;-61
2022/02/01 03:53:50;;;;;;;3.40;1.30;;;;;;;;;;5106679;28;20162;-61
2022/02/01 03:56:16;;;;;;;5.65;1.50;;;;;;;;;;5088061;28;20052;-61
2022/02/01 03:58:42;;;;;;;8.93;1.45;;;;;;;;;;5074333;28;20022;-61
2022/02/01 04:01:08;;;;;;;9.27;1.70;;;;;;;;;;5074226;28;20535;-62
2022/02/01 04:03:34;;;;;;;5.75;1.50;;;;;;;;;;5074208;28;20035;-61
2022/02/01 04:06:00;;;;;;;5.40;1.42;;;;;;;;;;5055886;28;20115;-60
2022/02/01 04:08:26;;;;;;;8.20;1.55;;;;;;;;;;5074261;28;20181;-62
2022/02/01 04:10:52;;;;;;;5.10;1.42;;;;;;;;;;5073993;28;20024;-61
2022/02/01 04:13:19;;;;;;;9.40;1.60;;;;;;;;;;5074015;28;20446;-61
2022/02/01 04:15:46;;;;;;;7.25;1.70;;;;;;;;;;5073715;28;20056;-61
2022/02/01 04:18:12;;;;;;;5.10;1.35;;;;;;;;;;5074124;28;20028;-61
2022/02/01 04:20:39;;;;;;;3.97;1.20;;;;;;;;;;5074216;28;20032;-61
2022/02/01 04:23:05;;;;;;;5.20;1.58;;;;;;;;;;5073950;28;20028;-62
2022/02/01 04:25:31;;;;;;;4.68;1.38;;;;;;;;;;5073467;28;20120;-61
2022/02/01 04:27:57;;;;;;;4.28;1.58;;;;;;;;;;5076837;28;20106;-60
2022/02/01 04:30:23;;;;;;;5.43;1.60;;;;;;;;;;5093700;28;20165;-61
2022/02/01 04:32:50;;;;;;;4.95;1.48;;;;;;;;;;5093674;28;20126;-61
2022/02/01 04:35:17;;;;;;;3.90;1.63;;;;;;;;;;5075695;28;20109;-61
2022/02/01 04:37:44;;;;;;;4.20;1.38;;;;;;;;;;5093749;28;20039;-61
2022/02/01 04:40:11;;;;;;;3.80;1.40;;;;;;;;;;5093719;28;20477;-61
2022/02/01 04:42:38;;;;;;;4.00;1.30;;;;;;;;;;5093887;28;20138;-62
2022/02/01 04:45:05;;;;;;;5.60;1.40;;;;;;;;;;5093608;28;20505;-61
2022/02/01 04:47:33;;;;;;;6.80;1.75;;;;;;;;;;5075068;28;20033;-60
2022/02/01 04:50:00;;;;;;;5.43;1.38;;;;;;;;;;5073282;28;20021;-61
2022/02/01 04:52:27;;;;;;;5.18;1.55;;;;;;;;;;5073495;28;20038;-61
2022/02/01 04:54:53;;;;;;;8.02;1.77;;;;;;;;;;5062552;28;20039;-62
2022/02/01 04:57:19;;;;;;;6.10;1.60;;;;;;;;;;5093421;28;20040;-61
2022/02/01 04:59:45;;;;;;;4.57;1.88;;;;;;;;;;5093331;28;20028;-61
2022/02/01 05:02:11;;;;;;;18.40;1.80;;;;;;;;;;5107401;28;20478;-61
2022/02/01 05:04:37;;;;;;;10.68;2.55;;;;;;;;;;5114497;27;20019;-61
2022/02/01 05:07:03;;;;;;;15.38;2.20;;;;;;;;;;5115802;27;20024;-62
2022/02/01 05:09:29;;;;;;;8.38;1.65;;;;;;;;;;5134079;27;20470;-61
2022/02/01 05:11:57;;;;;;;9.13;1.70;;;;;;;;;;5134150;27;20022;-61
2022/02/01 05:14:25;;;;;;;11.18;1.92;;;;;;;;;;5134074;27;20023;-61
2022/02/01 05:20:16;;;;;;;8.82;2.00;;;;;;;;;;5134246;27;20074;-60
2022/02/01 05:22:15;;;;;;;6.88;1.90;;;;;;;;;;5112816;27;20042;-61
2022/02/01 05:24:41;;;;;;;10.73;1.50;;;;;;;;;;5117146;27;20022;-62
2022/02/01 05:27:10;;;;;;;6.05;1.77;;;;;;;;;;5125923;27;20019;-62
2022/02/01 05:29:37;;;;;;;9.57;1.80;;;;;;;;;;5123913;27;20470;-61
2022/02/01 05:32:13;;;;;;;6.10;1.67;;;;;;;;;;5121217;27;20055;-61
2022/02/01 05:34:40;;;;;;;5.57;1.52;;;;;;;;;;5121378;27;20028;-62
2022/02/01 05:37:05;;;;;;;4.05;1.73;;;;;;;;;;5112853;28;20042;-61
2022/02/01 05:39:31;;;;;;;6.03;1.95;;;;;;;;;;5128761;27;20027;-61
2022/02/01 05:41:59;;;;;;;6.70;1.63;;;;;;;;;;5113030;28;20031;-61
2022/02/01 05:44:25;;;;;;;7.85;1.55;;;;;;;;;;5113001;28;20039;-62
2022/02/01 05:46:51;;;;;;;7.60;2.00;;;;;;;;;;5112525;28;20031;-66
2022/02/01 05:49:18;;;;;;;21.17;1.88;;;;;;;;;;5095124;28;20491;-60
2022/02/01 05:51:48;;;;;;;8.32;1.77;;;;;;;;;;5112629;28;20028;-61
2022/02/01 05:54:14;;;;;;;4.95;1.45;;;;;;;;;;5114035;27;20019;-65
2022/02/01 05:56:40;;;;;;;5.97;1.50;;;;;;;;;;5114325;27;20084;-61
2022/02/01 05:59:06;;;;;;;8.40;2.05;;;;;;;;;;5120918;27;20106;-61
2022/02/01 06:01:32;;;;;;;8.00;2.03;;;;;;;;;;5126424;27;20442;-61
2022/02/01 06:03:58;;;;;;;5.43;1.40;;;;;;;;;;5124347;27;20015;-61
2022/02/01 06:06:24;;;;;;;5.53;2.00;;;;;;;;;;5105965;28;20026;-61
2022/02/01 06:08:50;;;;;;;6.10;1.70;;;;;;;;;;5115041;28;20028;-61
2022/02/01 06:11:16;;;;;;;5.40;1.67;;;;;;;;;;5116692;28;20079;-66
2022/02/01 06:13:42;;;;;;;7.07;1.40;;;;;;;;;;5094301;28;20020;-61
2022/02/01 06:16:08;;;;;;;5.50;1.60;;;;;;;;;;5102934;28;20035;-64
2022/02/01 06:18:34;;;;;;;29.25;2.47;;;;;;;;;;5101310;28;20034;-66
2022/02/01 06:21:00;;;;;;;39.40;3.08;;;;;;;;;;5116769;28;20031;-61
2022/02/01 06:23:27;;;;;;;28.25;3.33;;;;;;;;;;5118569;28;20398;-60
2022/02/01 06:25:55;;;;;;;18.40;2.33;;;;;;;;;;5116142;27;20042;-68
2022/02/01 06:28:22;;;;;;;38.92;3.20;;;;;;;;;;5113663;27;20027;-60
2022/02/01 06:30:49;;;;;;;33.28;3.13;;;;;;;;;;5122922;27;20045;-64
2022/02/01 06:33:16;;;;;;;15.25;2.47;;;;;;;;;;5113202;27;20066;-60
2022/02/01 06:35:42;;;;;;;35.72;2.90;;;;;;;;;;5136997;27;20035;-66
2022/02/01 06:38:08;;;;;;;20.85;2.92;;;;;;;;;;5137005;27;20019;-65
2022/02/01 06:40:35;;;;;;;45.67;3.00;;;;;;;;;;5137339;27;20023;-65
2022/02/01 06:43:01;;;;;;;17.60;2.90;;;;;;;;;;5109085;28;20035;-63
2022/02/01 06:45:27;;;;;;;23.70;2.67;;;;;;;;;;5124084;27;20488;-63
2022/02/01 06:47:53;;;;;;;49.25;3.53;;;;;;;;;;5136301;27;20034;-68
2022/02/01 06:50:21;;;;;;;31.08;3.40;;;;;;;;;;5137001;27;20027;-63
2022/02/01 06:52:47;;;;;;;36.55;3.38;;;;;;;;;;5136726;27;20022;-64
2022/02/01 06:55:21;;;;;;;15.05;2.13;;;;;;;;;;5136644;27;20039;-63
2022/02/01 06:57:47;;;;;;;19.42;2.50;;;;;;;;;;5137035;27;20027;-64
2022/02/01 07:00:13;;;;;;;17.95;2.60;;;;;;;;;;5136803;27;20667;-67
2022/02/01 07:02:39;;;;;;;24.05;2.85;;;;;;;;;;5131650;27;20114;-66
2022/02/01 07:05:05;;;;;;;17.50;2.65;;;;;;;;;;5122968;27;20103;-65
2022/02/01 07:07:31;;;;;;;13.68;2.17;;;;;;;;;;5116018;28;20389;-65
2022/02/01 07:09:57;;;;;;;15.02;2.45;;;;;;;;;;5116092;28;20491;-66
2022/02/01 07:12:23;;;;;;;20.90;2.17;;;;;;;;;;5115975;28;20027;-64
2022/02/01 07:14:49;;;;;;;18.70;2.08;;;;;;;;;;5123638;27;20184;-65
2022/02/01 07:17:15;;;;;;;9.65;2.13;;;;;;;;;;5121840;27;20027;-65
2022/02/01 07:19:41;;;;;;;14.98;1.90;;;;;;;;;;5128433;27;20031;-66
2022/02/01 07:22:07;;;;;;;11.98;2.28;;;;;;;;;;5123847;27;20030;-65
2022/02/01 07:24:37;;;;;;;22.52;2.22;;;;;;;;;;5127193;27;20450;-66
2022/02/01 07:27:12;;;;;;;10.45;1.75;;;;;;;;;;5127028;27;20352;-64
2022/02/01 07:29:38;;;;;;;9.02;1.90;;;;;;;;;;5121525;27;20390;-66
2022/02/01 07:32:04;;;;;;;8.30;1.50;;;;;;;;;;5123032;27;20035;-64
2022/02/01 07:34:30;;;;;;;7.63;2.00;;;;;;;;;;5115667;28;20046;-64
2022/02/01 07:36:56;;;;;;;4.15;1.50;;;;;;;;;;5115368;28;20453;-65
2022/02/01 07:39:22;;;;;;;10.10;1.70;;;;;;;;;;5114505;28;20023;-65
2022/02/01 07:41:48;;;;;;;5.45;1.23;;;;;;;;;;5114941;28;20031;-65
2022/02/01 07:44:15;;;;;;;4.70;1.25;;;;;;;;;;5115626;28;20034;-65
2022/02/01 07:46:42;;;;;;;5.78;1.63;;;;;;;;;;5115098;28;20023;-65
2022/02/01 07:49:11;;;;;;;5.53;1.30;;;;;;;;;;5115044;28;20476;-65
2022/02/01 07:51:37;;;;;;;3.10;1.17;;;;;;;;;;5115634;27;20030;-65
2022/02/01 07:54:03;;;;;;;4.35;0.95;;;;;;;;;;5114695;28;20024;-65
2022/02/01 07:56:29;;;;;;;3.90;1.17;;;;;;;;;;5114799;28;20036;-65
2022/02/01 07:58:55;;;;;;;2.92;1.02;;;;;;;;;;5114546;28;20480;-66
2022/02/01 08:01:21;;;;;;;3.58;1.10;;;;;;;;;;5114447;28;20027;-66
2022/02/01 08:03:47;;;;;;;4.07;1.13;;;;;;;;;;5114565;28;20107;-65
2022/02/01 08:06:15;;;;;;;5.47;1.02;;;;;;;;;;5096188;28;20027;-65
2022/02/01 08:08:41;;;;;;;9.30;1.10;;;;;;;;;;5104448;27;20027;-64
2022/02/01 08:11:12;;;;;;;6.55;1.48;;;;;;;;;;5122621;27;20084;-64
2022/02/01 08:17:10;;;;;;;7.13;1.45;;;;;;;;;;5114904;28;20125;-64
2022/02/01 08:19:36;;;;;;;7.45;1.65;;;;;;;;;;5103388;28;20027;-64
2022/02/01 08:22:09;;;;;;;5.80;1.80;;;;;;;;;;5114355;28;20031;-64
2022/02/01 08:24:35;;;;;;;7.85;1.75;;;;;;;;;;5114627;28;20055;-65
2022/02/01 08:27:01;;;;;;;12.27;2.20;;;;;;;;;;5114975;28;20024;-65
2022/02/01 08:29:27;;;;;;;9.07;2.03;;;;;;;;;;5096231;28;20024;-64
2022/02/01 08:31:53;;;;;;;10.13;1.83;;;;;;;;;;5123611;27;20031;-64
2022/02/01 08:34:19;;;;;;;7.78;2.08;;;;;;;;;;5118999;27;20030;-64
2022/02/01 08:36:45;;;;;;;10.82;2.00;;;;;;;;;;5114207;28;20043;-65
2022/02/01 08:39:11;;;;;;;7.82;1.77;;;;;;;;;;5095842;28;20023;-64
2022/02/01 08:41:37;;;;;;;6.43;1.80;;;;;;;;;;5113968;28;20023;-64
2022/02/01 08:44:05;;;;;;;8.10;1.75;;;;;;;;;;5095889;28;20047;-63
2022/02/01 08:46:31;;;;;;;9.00;2.00;;;;;;;;;;5113841;28;20043;-64
2022/02/01 08:48:57;;;;;;;6.13;1.88;;;;;;;;;;5095677;28;20050;-64
2022/02/01 08:51:25;;;;;;;8.55;1.85;;;;;;;;;;5095588;28;20072;-63
2022/02/01 08:53:57;;;;;;;6.70;1.90;;;;;;;;;;5114083;28;20028;-64
2022/02/01 08:57:25;;;;;;;7.05;1.63;;;;;;;;;;5114100;28;20491;-64
2022/02/01 08:59:18;;;;;;;7.93;2.13;;;;;;;;;;5111491;27;20034;-65
2022/02/01 09:01:44;;;;;;;11.43;2.20;;;;;;;;;;5096405;28;20036;-63
2022/02/01 09:04:10;;;;;;;10.32;2.30;;;;;;;;;;5113762;28;20076;-64
2022/02/01 09:06:36;;;;;;;10.02;2.17;;;;;;;;;;5113745;28;20084;-64
2022/02/01 09:09:03;;;;;;;9.95;2.22;;;;;;;;;;5113595;28;20024;-64
2022/02/01 09:11:29;;;;;;;9.57;2.30;;;;;;;;;;5113347;28;20019;-65
2022/02/01 09:13:56;;;;;;;9.88;2.42;;;;;;;;;;5095178;28;20023;-64
2022/02/01 09:16:22;;;;;;;14.05;2.95;;;;;;;;;;5123481;27;20043;-65
2022/02/01 09:18:48;;;;;;;9.10;2.50;;;;;;;;;;5133936;27;20029;-64
2022/02/01 09:21:14;;;;;;;11.30;2.63;;;;;;;;;;5133819;27;20055;-64
2022/02/01 09:23:40;;;;;;;10.38;2.15;;;;;;;;;;5115082;27;20419;-64
2022/02/01 09:26:06;;;;;;;8.50;2.55;;;;;;;;;;5133848;27;20103;-64
2022/02/01 09:28:33;;;;;;;11.32;2.33;;;;;;;;;;5133846;27;20355;-64
2022/02/01 09:30:59;;;;;;;6.88;2.17;;;;;;;;;;5132539;27;20031;-64
2022/02/01 09:33:25;;;;;;;9.70;2.30;;;;;;;;;;5106738;27;20027;-63
2022/02/01 09:35:51;;;;;;;11.18;2.30;;;;;;;;;;5115154;27;20119;-64
2022/02/01 09:38:18;;;;;;;6.57;2.38;;;;;;;;;;5127480;27;20102;-65
2022/02/01 09:40:44;;;;;;;9.02;2.03;;;;;;;;;;5113037;28;20020;-64
2022/02/01 09:43:10;;;;;;;8.10;2.30;;;;;;;;;;5112792;28;20028;-64
2022/02/01 09:45:37;;;;;;;9.02;1.88;;;;;;;;;;5113165;28;20438;-64
2022/02/01 09:48:03;;;;;;;11.38;2.20;;;;;;;;;;5079347;27;20020;-64
2022/02/01 09:50:29;;;;;;;8.18;2.25;;;;;;;;;;5124644;27;20027;-64
2022/02/01 09:52:55;;;;;;;9.88;2.70;;;;;;;;;;5094500;28;20084;-63
2022/02/01 09:55:22;;;;;;;8.90;2.30;;;;;;;;;;5094257;28;20059;-64
2022/02/01 09:57:55;;;;;;;7.53;2.25;;;;;;;;;;5094583;28;20034;-64
2022/02/01 10:00:22;;;;;;;;;;;;;;;;;;5113343;28;20031;-64
2022/02/01 10:02:54;;;;;;;10.05;2.78;;;;;;;;;;5112254;28;19904;-64
2022/02/01 10:05:20;;;;;;;13.02;2.70;;;;;;;;;;5114838;27;20505;-64
2022/02/01 10:07:53;;;;;;;7.72;2.40;;;;;;;;;;5130705;27;20051;-64
2022/02/01 10:10:20;;;;;;;10.40;2.20;;;;;;;;;;5112579;28;20428;-64
2022/02/01 10:12:57;;;;;;;8.93;2.20;;;;;;;;;;5112581;28;20042;-64
2022/02/01 10:15:26;;;;;;;6.78;2.40;;;;;;;;;;5112727;28;20526;-64
2022/02/01 10:17:58;;;;;;;11.75;2.60;;;;;;;;;;5112518;28;20035;-64
2022/02/01 10:20:36;;;;;;;12.18;4.00;;;;;;;;;;5112846;28;20016;-63
2022/02/01 10:23:17;;;;;;;16.33;5.80;;;;;;;;;;5123055;28;20035;-64
2022/02/01 10:25:57;;;;;;;33.80;15.00;;;;;;;;;;5132839;28;20029;-64
2022/02/01 10:28:23;;;;;;;26.13;13.05;;;;;;;;;;5133108;28;20049;-64
2022/02/01 10:30:50;;;;;;;31.70;15.32;;;;;;;;;;5132919;28;20026;-64
2022/02/01 10:36:12;;;;;;;29.60;13.65;;;;;;;;;;5133280;28;20157;-64
2022/02/01 10:38:38;;;;;;;30.15;13.90;;;;;;;;;;5132976;28;20023;-64
2022/02/01 10:41:07;;;;;;;33.33;14.48;;;;;;;;;;5131803;28;20098;-64
2022/02/01 10:43:34;;;;;;;26.98;12.23;;;;;;;;;;5132701;28;20019;-64
2022/02/01 10:46:07;;;;;;;27.33;13.15;;;;;;;;;;5132810;28;20027;-63
2022/02/01 10:48:33;;;;;;;27.00;12.45;;;;;;;;;;5131418;28;20030;-64
2022/02/01 10:51:04;;;;;;;29.02;11.85;;;;;;;;;;5132565;28;20037;-64
2022/02/01 10:53:30;;;;;;;28.40;11.23;;;;;;;;;;5132733;28;20015;-64
2022/02/01 10:55:57;;;;;;;25.05;10.15;;;;;;;;;;5111454;27;20051;-63
2022/02/01 10:58:23;;;;;;;25.48;9.88;;;;;;;;;;5083375;28;20028;-63
2022/02/01 11:00:49;;;;;;;21.35;9.23;;;;;;;;;;5091193;28;20020;-63
2022/02/01 11:03:15;;;;;;;21.75;9.30;;;;;;;;;;5092091;28;20035;-66
2022/02/01 11:05:47;;;;;;;51.63;9.52;;;;;;;;;;5091864;28;20032;-66
2022/02/01 11:08:14;;;;;;;19.95;8.10;;;;;;;;;;5090683;28;20032;-66
2022/02/01 11:10:44;;;;;;;19.05;6.65;;;;;;;;;;5083927;28;20571;-66
2022/02/01 11:13:11;;;;;;;23.40;7.25;;;;;;;;;;5071598;28;20021;-65
2022/02/01 11:15:37;;;;;;;30.40;6.93;;;;;;;;;;5073439;28;20048;-63
2022/02/01 11:18:10;;;;;;;24.05;6.47;;;;;;;;;;5075256;28;20032;-63
2022/02/01 11:20:36;;;;;;;16.50;5.20;;;;;;;;;;5074226;28;20025;-64
2022/02/01 11:23:03;;;;;;;18.65;4.85;;;;;;;;;;5073980;28;20131;-63
2022/02/01 11:25:42;;;;;;;17.02;5.30;;;;;;;;;;5083148;28;20107;-64
2022/02/01 11:28:14;;;;;;;16.05;4.70;;;;;;;;;;5082603;28;20385;-64
2022/02/01 11:30:45;;;;;;;15.90;4.78;;;;;;;;;;5087877;28;20028;-66
2022/02/01 11:33:12;;;;;;;12.55;3.80;;;;;;;;;;5083844;28;20041;-66
2022/02/01 11:35:39;;;;;;;14.48;3.50;;;;;;;;;;5073802;28;20090;-66
2022/02/01 11:38:14;;;;;;;12.05;3.67;;;;;;;;;;5074963;28;20028;-62
2022/02/01 11:40:41;;;;;;;14.40;3.88;;;;;;;;;;5076198;28;20071;-62
2022/02/01 11:43:09;;;;;;;15.07;3.90;;;;;;;;;;5080939;28;20020;-62
2022/02/01 11:45:52;;;;;;;14.85;3.53;;;;;;;;;;5074519;28;20543;-62
2022/02/01 11:48:29;;;;;;;14.90;3.58;;;;;;;;;;5074066;28;20064;-63
2022/02/01 11:50:59;;;;;;;14.13;3.45;;;;;;;;;;5074478;28;20016;-61
2022/02/01 11:53:45;;;;;;;10.38;3.05;;;;;;;;;;5073162;28;20071;-62
2022/02/01 11:56:12;;;;;;;10.50;3.40;;;;;;;;;;5110593;28;20051;-61
2022/02/01 11:58:42;;;;;;;9.07;2.75;;;;;;;;;;5123093;27;20038;-61
2022/02/01 12:01:40;;;;;;;12.93;3.10;;;;;;;;;;5114872;28;20019;-61
2022/02/01 12:04:12;;;;;;;11.75;3.08;;;;;;;;;;5070290;28;20043;-61
2022/02/01 12:06:45;;;;;;;11.60;3.23;;;;;;;;;;5114996;28;20102;-61
2022/02/01 12:09:19;;;;;;;9.90;2.47;;;;;;;;;;5096440;28;20499;-61
2022/02/01 12:11:45;;;;;;;13.77;3.17;;;;;;;;;;5114503;28;20020;-61
2022/02/01 12:14:12;;;;;;;9.98;3.15;;;;;;;;;;5114712;28;20028;-62
2022/02/01 12:16:45;;;;;;;13.52;3.20;;;;;;;;;;5114597;28;20399;-62
2022/02/01 12:19:16;;;;;;;13.82;3.00;;;;;;;;;;5114801;28;20038;-62
2022/02/01 12:21:57;;;;;;;10.93;2.83;;;;;;;;;;5114416;28;20027;-62
2022/02/01 12:24:26;;;;;;;9.80;2.70;;;;;;;;;;5114085;28;20451;-63
2022/02/01 12:26:52;;;;;;;9.10;2.65;;;;;;;;;;5107621;27;20063;-62
2022/02/01 12:29:18;;;;;;;17.35;3.28;;;;;;;;;;5135056;27;20110;-62
2022/02/01 12:31:44;;;;;;;10.27;2.80;;;;;;;;;;5134686;27;20403;-62
2022/02/01 12:34:12;;;;;;;10.93;2.70;;;;;;;;;;5134915;27;20434;-62
2022/02/01 12:36:41;;;;;;;7.47;2.33;;;;;;;;;;5134912;27;20023;-62
2022/02/01 12:39:18;;;;;;;13.30;2.85;;;;;;;;;;5134786;27;20098;-62
2022/02/01 12:42:04;;;;;;;8.85;2.50;;;;;;;;;;5134478;27;20562;-61
2022/02/01 12:46:59;;;;;;;9.35;2.70;;;;;;;;;;5134411;27;20600;-62
2022/02/01 12:49:37;;;;;;;8.80;2.33;;;;;;;;;;5134479;27;20588;-62
2022/02/01 12:52:04;;;;;;;9.68;2.47;;;;;;;;;;5115917;27;20038;-61
2022/02/01 12:54:33;;;;;;;5.93;1.88;;;;;;;;;;5134386;27;20176;-61
2022/02/01 12:57:07;;;;;;;8.65;2.28;;;;;;;;;;5134387;27;20050;-62
2022/02/01 12:59:40;;;;;;;9.30;2.08;;;;;;;;;;5132995;27;20533;-64
2022/02/01 13:02:07;;;;;;;10.00;2.10;;;;;;;;;;5134084;27;20057;-61
2022/02/01 13:04:33;;;;;;;11.43;2.13;;;;;;;;;;5134370;27;20027;-61
2022/02/01 13:07:00;;;;;;;10.50;2.50;;;;;;;;;;5134300;27;20139;-61
2022/02/01 13:15:06;;;;;;;11.38;2.28;;;;;;;;;;5113679;28;20258;-62
2022/02/01 13:20:11;;;;;;;6.15;1.80;;;;;;;;;;5124828;27;20042;-61
2022/02/01 13:22:37;;;;;;;9.75;2.17;;;;;;;;;;5115555;27;20102;-63
2022/02/01 13:25:06;;;;;;;9.60;1.90;;;;;;;;;;5113088;28;20023;-61
2022/02/01 13:27:33;;;;;;;8.63;1.85;;;;;;;;;;5113264;28;20058;-61
2022/02/01 13:30:00;;;;;;;10.55;2.10;;;;;;;;;;5113290;28;20057;-62
2022/02/01 13:32:36;;;;;;;7.40;2.20;;;;;;;;;;5094860;28;20367;-61
2022/02/01 13:35:07;;;;;;;10.30;1.92;;;;;;;;;;5117159;27;20023;-61
2022/02/01 13:37:33;;;;;;;6.78;1.70;;;;;;;;;;5114988;27;20031;-62
2022/02/01 13:40:00;;;;;;;8.43;2.30;;;;;;;;;;5133654;27;20019;-61
2022/02/01 13:42:30;;;;;;;9.88;2.20;;;;;;;;;;5133313;27;20029;-61
2022/02/01 13:44:58;;;;;;;6.45;1.90;;;;;;;;;;5133553;27;20051;-61
2022/02/01 13:47:33;;;;;;;9.90;2.10;;;;;;;;;;5133168;27;20054;-62
2022/02/01 13:49:59;;;;;;;7.32;1.55;;;;;;;;;;5132562;27;20022;-62
2022/02/01 13:52:25;;;;;;;7.15;1.70;;;;;;;;;;5125094;27;20027;-61
2022/02/01 13:54:52;;;;;;;8.35;1.90;;;;;;;;;;5112729;28;20051;-61
2022/02/01 13:57:19;;;;;;;7.28;1.83;;;;;;;;;;5112945;28;20043;-63
2022/02/01 13:59:46;;;;;;;6.75;2.05;;;;;;;;;;5113009;28;20075;-62
2022/02/01 14:02:20;;;;;;;8.20;2.03;;;;;;;;;;5112686;28;20107;-61
2022/02/01 14:05:01;;;;;;;8.13;1.98;;;;;;;;;;5112960;28;20020;-61
2022/02/01 14:10:09;;;;;;;8.15;1.60;;;;;;;;;;5120464;28;20053;-61
2022/02/01 14:36:22;;;;;;;7.93;1.50;;;;;;;;;;5112609;28;20067;-61
2022/02/01 14:46:44;;;;;;;6.03;1.60;;;;;;;;;;5112204;28;20433;-61
2022/02/01 14:49:10;;;;;;;5.30;1.48;;;;;;;;;;5117141;27;20027;-62
2022/02/01 14:51:36;;;;;;;7.78;1.58;;;;;;;;;;5125575;27;20023;-61
2022/02/01 14:54:05;;;;;;;6.95;1.67;;;;;;;;;;5137153;27;20020;-61
2022/02/01 14:56:35;;;;;;;8.55;1.90;;;;;;;;;;5137184;27;20089;-62
2022/02/01 15:03:45;;;;;;;7.78;2.08;;;;;;;;;;5136795;27;20054;-60
2022/02/01 15:05:02;;;;;;;5.05;1.80;;;;;;;;;;5136681;27;20038;-62
2022/02/01 15:07:49;;;;;;;8.48;1.67;;;;;;;;;;5118673;27;20475;-62
2022/02/01 15:12:59;;;;;;;7.28;1.77;;;;;;;;;;5116029;28;20185;-64
2022/02/01 15:15:25;;;;;;;6.55;1.60;;;;;;;;;;5115620;28;20161;-61
2022/02/01 15:17:51;;;;;;;8.68;2.00;;;;;;;;;;5097232;28;20612;-63
2022/02/01 15:20:17;;;;;;;9.70;2.15;;;;;;;;;;5115497;28;20027;-66
2022/02/01 15:22:45;;;;;;;4.70;1.50;;;;;;;;;;5115246;28;20036;-64
2022/02/01 15:25:12;;;;;;;7.60;1.77;;;;;;;;;;5115230;28;20028;-63
2022/02/01 15:27:38;;;;;;;9.10;1.50;;;;;;;;;;5116166;28;20022;-63
2022/02/01 15:30:05;;;;;;;9.38;2.10;;;;;;;;;;5115429;28;20019;-62
2022/02/01 15:32:31;;;;;;;10.10;2.20;;;;;;;;;;5119407;27;20023;-63
2022/02/01 15:34:56;;;;;;;8.63;2.17;;;;;;;;;;5109419;27;20034;-63
2022/02/01 15:37:28;;;;;;;8.45;2.10;;;;;;;;;;5136078;27;20042;-63
2022/02/01 15:54:24;;;;;;;7.15;1.77;;;;;;;;;;5135624;27;20546;-62
2022/02/01 15:58:48;;;;;;;6.47;1.90;;;;;;;;;;5115047;28;20080;-63
2022/02/01 16:01:34;;;;;;;4.07;1.50;;;;;;;;;;5114268;28;20031;-64
2022/02/01 16:04:02;;;;;;;10.10;2.00;;;;;;;;;;5115169;28;20110;-64
2022/02/01 16:06:29;;;;;;;11.35;2.38;;;;;;;;;;5125705;27;20023;-64
2022/02/01 16:09:06;;;;;;;8.05;1.50;;;;;;;;;;5115113;28;20080;-62
2022/02/01 16:11:32;;;;;;;10.95;2.10;;;;;;;;;;5115141;28;20031;-62
2022/02/01 16:14:01;;;;;;;10.93;1.83;;;;;;;;;;5096626;28;20068;-62
2022/02/01 16:16:27;;;;;;;10.13;2.38;;;;;;;;;;5114664;28;20497;-62
2022/02/01 16:18:53;;;;;;;11.43;2.38;;;;;;;;;;5114775;28;20051;-62
2022/02/01 16:21:20;;;;;;;9.60;2.53;;;;;;;;;;5114495;28;20498;-62
2022/02/01 16:23:46;;;;;;;11.77;2.42;;;;;;;;;;5114345;28;20110;-62
2022/02/01 16:26:12;;;;;;;9.82;2.38;;;;;;;;;;5114539;28;20032;-62
2022/02/01 16:28:38;;;;;;;5.03;1.60;;;;;;;;;;5114449;28;20077;-62
2022/02/01 16:31:04;;;;;;;9.18;2.15;;;;;;;;;;5114377;28;20055;-61
2022/02/01 16:33:30;;;;;;;8.13;2.20;;;;;;;;;;5115413;27;20027;-61
2022/02/01 16:35:56;;;;;;;11.45;2.53;;;;;;;;;;5116440;27;20023;-62
2022/02/01 16:38:24;;;;;;;8.85;2.15;;;;;;;;;;5134988;27;20023;-62
2022/02/01 16:40:50;;;;;;;10.48;2.03;;;;;;;;;;5116465;27;20148;-62
2022/02/01 16:43:18;;;;;;;7.00;1.88;;;;;;;;;;5134849;27;20042;-60
2022/02/01 16:45:46;;;;;;;6.68;2.00;;;;;;;;;;5134762;27;20106;-61
2022/02/01 16:48:13;;;;;;;11.45;2.17;;;;;;;;;;5115711;27;20023;-63
2022/02/01 16:50:40;;;;;;;7.78;2.10;;;;;;;;;;5134998;27;20019;-61
2022/02/01 16:53:17;;;;;;;15.48;2.25;;;;;;;;;;5128061;27;20038;-62
2022/02/01 16:58:31;;;;;;;11.02;2.20;;;;;;;;;;5134562;27;20042;-61
2022/02/01 17:00:58;;;;;;;11.90;2.47;;;;;;;;;;5134614;27;20015;-61
2022/02/01 17:03:25;;;;;;;9.05;1.95;;;;;;;;;;5134341;27;20024;-61
2022/02/01 17:05:54;;;;;;;14.13;2.90;;;;;;;;;;5133965;27;20028;-61
2022/02/01 17:08:21;;;;;;;11.15;2.08;;;;;;;;;;5134291;27;20486;-61
2022/02/01 17:10:51;;;;;;;10.52;2.28;;;;;;;;;;5112155;27;20023;-63
2022/02/01 17:13:34;;;;;;;9.68;2.50;;;;;;;;;;5099440;28;20370;-61
2022/02/01 17:23:53;;;;;;;14.48;3.42;;;;;;;;;;5113221;28;20049;-71
2022/02/01 17:26:19;;;;;;;14.15;3.15;;;;;;;;;;5118695;27;20039;-61
2022/02/01 17:28:45;;;;;;;13.05;2.90;;;;;;;;;;5133685;27;20121;-60